Time;durP1;ratioP1;P1;durP2;ratioP2;P2;SDS_P1;SDS_P2;PMS_P1;PMS_P2;Temp;Humidity;BMP_temperature;BMP_pressure;BME280_temperature;BME280_humidity;BME280_pressure;Samples;Min_cycle;Max_cycle;Signal;HPM_P1;HPM_P2
2021/12/06 00:02:10;;;;;;;17.58;8.55;;;;;;;0.63;71.06;100190.88;4912088;29;20044;-76
2021/12/06 00:04:37;;;;;;;19.17;8.38;;;;;;;0.59;71.50;100185.63;4906858;29;20044;-76
2021/12/06 00:07:07;;;;;;;23.30;9.15;;;;;;;0.57;70.82;100182.13;4910176;29;20561;-77
2021/12/06 00:09:33;;;;;;;23.30;10.43;;;;;;;0.42;71.42;100171.31;4896082;29;20540;-77
2021/12/06 00:12:01;;;;;;;20.90;9.23;;;;;;;0.58;70.92;100198.38;4891197;29;20048;-76
2021/12/06 00:14:31;;;;;;;23.20;8.93;;;;;;;0.54;71.12;100197.41;4922768;29;20497;-77
2021/12/06 00:16:59;;;;;;;20.95;8.32;;;;;;;0.57;70.88;100194.94;4907149;29;20351;-76
2021/12/06 00:19:27;;;;;;;16.52;8.30;;;;;;;0.53;70.59;100198.22;4909091;29;20043;-76
2021/12/06 00:21:53;;;;;;;23.45;9.07;;;;;;;0.47;70.75;100180.06;4908308;29;20099;-78
2021/12/06 00:24:19;;;;;;;16.67;8.27;;;;;;;0.51;70.82;100181.91;4905799;29;20063;-76
2021/12/06 00:26:45;;;;;;;18.13;8.30;;;;;;;0.50;70.77;100182.75;4911632;29;20066;-76
2021/12/06 00:29:11;;;;;;;18.08;8.05;;;;;;;0.48;70.99;100193.72;4910515;29;20131;-76
2021/12/06 00:31:38;;;;;;;20.02;8.93;;;;;;;0.52;70.93;100193.03;4908961;29;20120;-76
2021/12/06 00:34:09;;;;;;;18.63;9.45;;;;;;;0.42;70.95;100192.69;4906256;29;20044;-77
2021/12/06 00:36:40;;;;;;;22.50;9.18;;;;;;;0.46;71.10;100188.56;4908675;29;20055;-76
2021/12/06 00:39:11;;;;;;;18.83;8.52;;;;;;;0.49;71.44;100198.03;4916431;29;20126;-77
2021/12/06 00:41:37;;;;;;;20.27;9.38;;;;;;;0.54;70.81;100191.41;4911224;29;20198;-77
2021/12/06 00:44:06;;;;;;;20.20;9.25;;;;;;;0.50;71.18;100190.41;4890560;29;20036;-76
2021/12/06 00:46:33;;;;;;;21.33;9.70;;;;;;;0.44;70.71;100182.50;4906755;29;20056;-77
2021/12/06 00:48:59;;;;;;;21.02;9.45;;;;;;;0.46;70.85;100193.66;4895340;29;20060;-77
2021/12/06 00:51:25;;;;;;;21.73;9.48;;;;;;;0.45;70.87;100194.47;4899091;29;20095;-77
2021/12/06 00:53:51;;;;;;;21.45;9.52;;;;;;;0.39;70.78;100177.22;4894997;29;20517;-77
2021/12/06 00:56:17;;;;;;;20.60;9.57;;;;;;;0.44;70.40;100193.59;4879215;29;20130;-76
2021/12/06 00:58:43;;;;;;;26.08;10.20;;;;;;;0.38;70.92;100175.47;4878202;29;20048;-76
2021/12/06 01:01:10;;;;;;;31.80;15.90;;;;;;;0.55;71.18;100181.19;4879241;29;20050;-77
2021/12/06 01:03:39;;;;;;;41.83;17.67;;;;;;;0.48;71.18;100147.63;4904571;29;20071;-78
2021/12/06 01:06:06;;;;;;;38.50;18.10;;;;;;;0.58;71.04;100137.78;4909903;29;20056;-77
2021/12/06 01:08:32;;;;;;;36.20;17.73;;;;;;;0.92;71.03;100173.16;4905935;29;20047;-76
2021/12/06 01:10:59;;;;;;;34.42;15.50;;;;;;;0.98;70.47;100179.34;4910657;29;20414;-76
2021/12/06 01:13:26;;;;;;;28.80;13.27;;;;;;;0.67;70.62;100146.63;4909913;29;20056;-76
2021/12/06 01:15:54;;;;;;;21.67;10.60;;;;;;;0.79;70.55;100179.50;4907886;29;20076;-76
2021/12/06 01:18:21;;;;;;;22.05;10.10;;;;;;;0.80;70.36;100187.25;4894551;29;20115;-77
2021/12/06 01:20:58;;;;;;;24.42;9.85;;;;;;;0.65;70.53;100174.75;4908124;29;20127;-77
2021/12/06 01:23:29;;;;;;;22.80;10.57;;;;;;;0.57;69.83;100177.00;4897826;29;20040;-76
2021/12/06 01:41:29;;;;;;;27.58;12.65;;;;;;;0.49;70.62;100178.44;4904453;29;20276;-77
2021/12/06 01:44:14;;;;;;;22.15;10.68;;;;;;;0.58;70.96;100194.13;4909356;29;20127;-76
2021/12/06 01:46:53;;;;;;;23.48;9.65;;;;;;;0.60;70.32;100192.50;4904734;29;20115;-75
2021/12/06 01:49:28;;;;;;;19.67;8.95;;;;;;;0.50;70.22;100197.22;4906802;29;20036;-79
2021/12/06 01:52:10;;;;;;;22.58;9.70;;;;;;;0.38;71.30;100172.00;4901769;29;20056;-78
2021/12/06 01:54:36;;;;;;;20.60;9.15;;;;;;;0.44;70.33;100185.91;4904662;29;20044;-76
2021/12/06 02:01:11;;;;;;;20.23;8.95;;;;;;;-0.19;70.69;100074.31;4899705;29;20511;-78
2021/12/06 02:03:57;;;;;;;17.92;8.32;;;;;;;-0.65;69.73;100006.91;4881679;29;20535;-76
2021/12/06 02:10:14;;;;;;;19.63;8.40;;;;;;;-0.58;70.32;100030.16;4896910;29;20111;-77
2021/12/06 02:13:21;;;;;;;20.85;9.20;;;;;;;0.59;70.12;100207.81;4896010;29;20580;-78
2021/12/06 02:15:49;;;;;;;23.20;9.55;;;;;;;-0.38;70.55;100047.16;4905288;29;20048;-76
2021/12/06 02:21:29;;;;;;;22.23;9.30;;;;;;;0.86;70.37;100217.38;4857394;29;20414;-77
2021/12/06 02:23:57;;;;;;;19.38;9.00;;;;;;;0.80;70.56;100194.06;4906002;29;20052;-76
2021/12/06 02:26:25;;;;;;;17.73;8.65;;;;;;;0.89;70.30;100207.19;4889607;29;20422;-76
2021/12/06 02:28:52;;;;;;;19.40;10.00;;;;;;;1.01;70.23;100219.59;4904300;29;20051;-76
2021/12/06 02:31:23;;;;;;;18.17;8.68;;;;;;;0.94;70.26;100202.28;4892962;29;20056;-76
2021/12/06 02:33:49;;;;;;;18.30;8.25;;;;;;;0.99;69.73;100226.38;4908751;29;20100;-76
2021/12/06 02:36:21;;;;;;;21.08;9.57;;;;;;;0.89;69.56;100223.47;4907139;29;20092;-76
2021/12/06 02:38:47;;;;;;;18.42;8.95;;;;;;;0.72;70.01;100219.41;4906095;29;20454;-76
2021/12/06 02:41:15;;;;;;;21.17;9.73;;;;;;;0.59;69.28;100220.63;4908915;29;20421;-76
2021/12/06 02:43:42;;;;;;;23.05;10.07;;;;;;;0.51;69.59;100220.34;4922021;29;20040;-78
2021/12/06 02:46:09;;;;;;;22.90;10.88;;;;;;;0.24;69.25;100192.84;4928946;29;20139;-75
2021/12/06 02:48:35;;;;;;;21.70;10.57;;;;;;;0.28;69.79;100216.88;4926617;29;20040;-77
2021/12/06 02:51:05;;;;;;;26.00;11.85;;;;;;;0.35;69.79;100228.22;4911301;29;20047;-77
2021/12/06 02:53:33;;;;;;;26.13;11.25;;;;;;;0.38;70.50;100231.78;4912147;29;20039;-76
2021/12/06 02:56:04;;;;;;;25.95;11.30;;;;;;;0.32;69.98;100225.56;4917407;29;20040;-77
2021/12/06 03:01:11;;;;;;;24.77;11.27;;;;;;;0.27;70.07;100230.47;4911784;29;20057;-76
2021/12/06 03:03:39;;;;;;;23.02;10.48;;;;;;;0.34;70.05;100240.16;4911116;29;20071;-77
2021/12/06 03:06:09;;;;;;;22.48;9.85;;;;;;;0.31;69.70;100251.97;4888413;29;20044;-76
2021/12/06 03:08:40;;;;;;;30.35;12.75;;;;;;;0.30;69.79;100251.09;4909443;29;20068;-77
2021/12/06 03:11:10;;;;;;;22.90;10.23;;;;;;;0.22;70.07;100247.38;4876687;29;20048;-76
2021/12/06 03:13:36;;;;;;;21.15;10.20;;;;;;;0.19;70.30;100244.69;4904563;29;20040;-77
2021/12/06 03:16:03;;;;;;;21.73;10.43;;;;;;;0.13;69.61;100248.72;4908013;29;20058;-76
2021/12/06 03:18:30;;;;;;;21.65;9.52;;;;;;;0.22;70.43;100266.13;4897648;29;20052;-77
2021/12/06 03:20:55;;;;;;;20.88;9.85;;;;;;;0.21;70.07;100264.38;4908541;29;20036;-75
2021/12/06 03:23:21;;;;;;;20.35;9.15;;;;;;;0.20;70.20;100252.41;4908004;29;20040;-75
2021/12/06 03:25:48;;;;;;;22.70;9.35;;;;;;;0.17;69.74;100251.41;4922413;29;20126;-76
2021/12/06 03:28:14;;;;;;;21.90;9.43;;;;;;;0.14;69.98;100264.94;4909485;29;20107;-76
2021/12/06 03:30:41;;;;;;;21.38;9.68;;;;;;;0.05;69.77;100251.78;5426819;23;20071;-77
2021/12/06 03:33:07;;;;;;;22.27;9.60;;;;;;;0.22;70.02;100276.38;4921512;29;20712;-78
2021/12/06 03:35:33;;;;;;;23.02;9.23;;;;;;;0.20;69.95;100261.78;4905544;29;20691;-76
2021/12/06 03:38:00;;;;;;;23.98;9.05;;;;;;;0.23;70.29;100252.53;4893662;29;20048;-76
2021/12/06 03:40:26;;;;;;;35.47;14.90;;;;;;;0.37;69.65;100268.44;4907941;29;20055;-76
2021/12/06 03:42:53;;;;;;;37.55;14.82;;;;;;;0.21;70.11;100240.50;4893809;29;20056;-74
2021/12/06 03:45:19;;;;;;;37.55;14.55;;;;;;;0.33;70.34;100252.91;4903834;29;20388;-76
2021/12/06 03:47:46;;;;;;;30.95;12.82;;;;;;;0.39;70.16;100251.47;4888235;29;20554;-76
2021/12/06 03:50:12;;;;;;;22.38;9.15;;;;;;;0.45;69.62;100273.88;4892746;29;20051;-76
2021/12/06 03:52:38;;;;;;;19.08;8.68;;;;;;;0.28;69.88;100253.59;4911893;29;20052;-77
2021/12/06 03:55:06;;;;;;;15.98;7.90;;;;;;;0.40;70.00;100281.38;4911784;29;20565;-77
2021/12/06 03:57:33;;;;;;;18.02;8.57;;;;;;;0.27;69.73;100259.53;4927756;29;20044;-77
2021/12/06 04:00:00;;;;;;;17.90;8.52;;;;;;;0.26;69.61;100268.00;4904652;29;20416;-77
2021/12/06 04:02:30;;;;;;;14.30;7.78;;;;;;;0.37;69.72;100290.59;4897557;29;20564;-75
2021/12/06 04:04:57;;;;;;;18.10;8.10;;;;;;;0.11;69.40;100269.97;4916303;29;20513;-77
2021/12/06 04:07:26;;;;;;;15.95;7.82;;;;;;;0.07;69.54;100286.84;4928148;29;20099;-75
2021/12/06 04:09:53;;;;;;;24.10;10.27;;;;;;;0.10;69.47;100291.25;4911857;29;20058;-75
2021/12/06 04:12:18;;;;;;;30.45;12.73;;;;;;;0.11;70.41;100291.31;4913519;29;20056;-77
2021/12/06 04:14:46;;;;;;;32.65;13.40;;;;;;;-0.09;69.14;100259.75;4895480;29;20039;-78
2021/12/06 04:17:13;;;;;;;28.27;11.68;;;;;;;0.11;68.65;100303.25;4911354;29;20040;-75
2021/12/06 04:19:41;;;;;;;26.50;11.02;;;;;;;0.09;69.83;100294.63;4895676;29;20043;-76
2021/12/06 04:22:08;;;;;;;24.15;10.73;;;;;;;0.21;69.60;100313.03;4911880;29;20054;-76
2021/12/06 04:24:35;;;;;;;16.05;8.30;;;;;;;0.07;69.21;100293.69;4895297;29;20091;-76
2021/12/06 04:27:12;;;;;;;18.92;8.13;;;;;;;0.02;69.35;100298.56;4895995;29;20082;-75
2021/12/06 04:29:40;;;;;;;14.02;6.95;;;;;;;-0.01;69.62;100312.13;4895852;29;20040;-76
2021/12/06 04:32:07;;;;;;;12.27;6.32;;;;;;;-0.07;69.42;100304.19;4878095;29;20147;-77
2021/12/06 04:34:33;;;;;;;14.00;6.63;;;;;;;0.06;69.66;100320.09;4908864;29;20052;-77
2021/12/06 04:36:59;;;;;;;11.80;6.18;;;;;;;0.07;69.97;100324.38;4895740;29;20045;-77
2021/12/06 04:39:25;;;;;;;17.20;7.18;;;;;;;-0.06;69.32;100313.63;4891434;29;20574;-77
2021/12/06 04:41:53;;;;;;;14.65;6.95;;;;;;;-0.27;69.91;100284.56;4876910;29;20052;-76
2021/12/06 04:44:19;;;;;;;14.32;6.03;;;;;;;-0.21;69.58;100320.66;4884185;29;20056;-76
2021/12/06 04:46:47;;;;;;;17.95;6.78;;;;;;;-0.41;68.50;100324.88;4891084;29;20189;-77
2021/12/06 04:49:13;;;;;;;13.18;6.75;;;;;;;-0.64;68.96;100333.28;4893009;29;20466;-75
2021/12/06 04:51:43;;;;;;;12.50;6.38;;;;;;;-0.82;69.71;100319.69;4884335;29;20052;-77
2021/12/06 04:54:11;;;;;;;11.98;6.07;;;;;;;-0.73;70.03;100334.56;4891261;29;20056;-76
2021/12/06 04:56:43;;;;;;;14.10;6.03;;;;;;;-0.74;70.33;100333.66;4869497;29;20450;-75
2021/12/06 04:59:17;;;;;;;15.15;6.35;;;;;;;-0.70;70.22;100339.81;4895289;29;20044;-75
2021/12/06 05:01:46;;;;;;;14.25;5.97;;;;;;;-0.75;70.19;100334.47;4902328;29;20052;-76
2021/12/06 05:04:16;;;;;;;13.40;6.55;;;;;;;-0.75;70.22;100337.03;4891742;29;20402;-76
2021/12/06 05:06:45;;;;;;;16.70;7.68;;;;;;;-0.76;70.17;100345.50;4890594;29;21015;-76
2021/12/06 05:09:24;;;;;;;14.48;6.72;;;;;;;-0.80;71.16;100349.59;4906571;29;20144;-76
2021/12/06 05:11:50;;;;;;;15.05;6.15;;;;;;;-1.02;69.96;100326.44;4892935;29;20509;-75
2021/12/06 05:14:16;;;;;;;14.77;6.80;;;;;;;-0.92;70.98;100333.72;4892492;29;20062;-77
2021/12/06 05:16:42;;;;;;;14.18;6.53;;;;;;;-0.87;70.42;100336.50;4891723;29;20580;-77
2021/12/06 05:19:08;;;;;;;12.43;6.47;;;;;;;-0.96;70.60;100330.13;4891187;29;20647;-76
2021/12/06 05:21:35;;;;;;;13.40;5.95;;;;;;;-0.95;70.56;100321.66;4860700;29;20097;-76
2021/12/06 05:24:04;;;;;;;12.85;5.82;;;;;;;-0.89;71.19;100355.97;4891178;29;20144;-76
2021/12/06 05:26:34;;;;;;;12.77;5.43;;;;;;;-0.93;69.64;100357.53;4890841;29;20077;-77
2021/12/06 05:29:08;;;;;;;12.38;5.38;;;;;;;-1.31;70.11;100347.25;4891727;29;20055;-78
2021/12/06 05:31:39;;;;;;;17.08;6.28;;;;;;;-1.45;70.34;100338.06;4876203;29;20057;-77
2021/12/06 05:34:16;;;;;;;13.98;5.75;;;;;;;-1.19;71.28;100361.38;4890309;29;20143;-76
2021/12/06 05:36:42;;;;;;;12.98;6.28;;;;;;;-1.14;70.43;100355.72;4891485;29;20176;-77
2021/12/06 05:39:09;;;;;;;15.32;6.10;;;;;;;-1.21;71.28;100356.22;4876243;29;20135;-76
2021/12/06 05:41:42;;;;;;;14.82;6.32;;;;;;;-1.25;71.37;100333.88;4892516;29;20055;-77
2021/12/06 05:44:07;;;;;;;12.80;6.00;;;;;;;-1.11;71.11;100365.19;4891906;29;20048;-76
2021/12/06 05:46:33;;;;;;;17.38;6.13;;;;;;;-1.04;71.19;100364.69;4892047;29;20037;-78
2021/12/06 05:49:03;;;;;;;13.10;5.60;;;;;;;-1.08;70.96;100358.53;4876737;29;20466;-76
2021/12/06 05:51:30;;;;;;;12.23;5.85;;;;;;;-1.02;70.65;100378.41;4887659;29;20057;-76
2021/12/06 05:53:55;;;;;;;17.90;6.72;;;;;;;-1.10;70.75;100370.38;4893474;29;20044;-76
2021/12/06 05:56:24;;;;;;;12.45;5.05;;;;;;;-1.22;70.74;100391.13;4877199;29;20783;-79
2021/12/06 05:58:56;;;;;;;13.32;5.75;;;;;;;-1.28;70.81;100382.25;4889688;29;20047;-77
2021/12/06 06:01:29;;;;;;;12.70;5.40;;;;;;;-1.59;70.81;100350.16;4893610;29;20585;-78
2021/12/06 06:04:01;;;;;;;13.15;5.93;;;;;;;-1.32;71.67;100381.25;4894679;29;20106;-81
2021/12/06 06:06:35;;;;;;;15.55;6.20;;;;;;;-1.86;71.05;100285.06;4876020;29;20076;-79
2021/12/06 06:09:05;;;;;;;12.93;5.25;;;;;;;-1.20;71.62;100378.41;4877135;29;20052;-77
2021/12/06 06:11:34;;;;;;;12.20;5.90;;;;;;;-1.21;71.33;100358.78;4908002;29;20047;-80
2021/12/06 06:14:04;;;;;;;12.77;6.15;;;;;;;-1.21;71.09;100379.22;4889705;29;20089;-79
2021/12/06 06:16:35;;;;;;;13.55;6.28;;;;;;;-1.14;71.08;100375.25;4892381;29;20048;-77
2021/12/06 06:19:01;;;;;;;14.20;5.97;;;;;;;-1.17;71.62;100363.22;4899730;29;20049;-78
2021/12/06 06:21:27;;;;;;;11.13;5.43;;;;;;;-1.05;70.92;100380.81;4894546;29;20040;-78
2021/12/06 06:23:53;;;;;;;10.70;4.78;;;;;;;-1.04;70.91;100385.13;4893730;29;20051;-77
2021/12/06 06:26:18;;;;;;;12.55;4.65;;;;;;;-1.02;70.85;100393.75;4891868;29;20450;-75
2021/12/06 06:28:47;;;;;;;11.60;4.82;;;;;;;-1.03;71.04;100386.88;4888596;29;20154;-76
2021/12/06 06:31:13;;;;;;;10.98;5.10;;;;;;;-0.97;70.67;100394.81;4891051;29;20115;-77
2021/12/06 06:33:39;;;;;;;10.88;4.75;;;;;;;-1.08;70.83;100385.78;4880029;29;20524;-77
2021/12/06 06:36:04;;;;;;;10.75;5.10;;;;;;;-1.23;70.88;100397.03;4889934;29;20050;-75
2021/12/06 06:38:30;;;;;;;9.05;4.20;;;;;;;-1.31;70.58;100393.22;4890607;29;20071;-75
2021/12/06 06:40:56;;;;;;;11.93;5.05;;;;;;;-1.26;71.22;100388.31;4891544;29;20064;-77
2021/12/06 06:43:22;;;;;;;9.38;4.47;;;;;;;-1.22;70.64;100391.13;4897981;29;20147;-76
2021/12/06 06:45:48;;;;;;;9.20;4.82;;;;;;;-1.25;69.80;100421.63;4891232;29;20487;-76
2021/12/06 06:48:15;;;;;;;12.85;5.65;;;;;;;-1.46;69.49;100412.91;4891410;29;20131;-76
2021/12/06 06:50:41;;;;;;;10.63;4.88;;;;;;;-1.61;69.95;100418.09;4890906;29;20041;-78
2021/12/06 06:53:07;;;;;;;12.30;5.93;;;;;;;-1.75;70.67;100415.72;4891286;29;20051;-77
2021/12/06 06:55:33;;;;;;;14.68;7.03;;;;;;;-1.70;70.77;100390.44;4890719;29;20068;-75
2021/12/06 06:57:58;;;;;;;18.75;7.90;;;;;;;-1.69;70.73;100407.53;4890184;29;20044;-76
2021/12/06 07:00:31;;;;;;;20.42;8.20;;;;;;;-1.45;70.70;100425.72;4898011;29;20052;-76
2021/12/06 07:02:57;;;;;;;14.70;7.05;;;;;;;-1.41;70.73;100424.19;4905349;29;20502;-74
2021/12/06 07:05:24;;;;;;;14.82;6.13;;;;;;;-1.33;71.03;100430.56;4889011;29;20055;-78
2021/12/06 07:07:50;;;;;;;13.00;5.95;;;;;;;-1.62;69.87;100408.69;4905150;29;20048;-77
2021/12/06 07:10:16;;;;;;;14.70;5.88;;;;;;;-1.74;70.76;100411.50;4889307;29;20045;-76
2021/12/06 07:12:46;;;;;;;15.15;6.78;;;;;;;-1.59;71.18;100424.19;4889167;29;20485;-78
2021/12/06 07:15:17;;;;;;;13.52;6.22;;;;;;;-1.54;71.00;100421.03;4875586;29;20044;-79
2021/12/06 07:17:43;;;;;;;18.20;6.53;;;;;;;-1.65;71.25;100400.88;4876883;29;20044;-78
2021/12/06 07:20:12;;;;;;;18.33;7.93;;;;;;;-1.68;70.99;100393.97;4888103;29;20421;-76
2021/12/06 07:22:38;;;;;;;18.05;7.88;;;;;;;-1.31;71.42;100441.72;4892127;29;20139;-76
2021/12/06 07:25:05;;;;;;;24.45;10.20;;;;;;;-1.43;70.75;100418.13;4892597;29;20780;-78
2021/12/06 07:27:31;;;;;;;18.30;8.45;;;;;;;-1.29;70.39;100446.91;4860326;29;20116;-76
2021/12/06 07:29:57;;;;;;;15.80;8.23;;;;;;;-1.56;70.48;100432.00;4891890;29;20072;-75
2021/12/06 07:32:23;;;;;;;20.88;8.80;;;;;;;-1.54;70.69;100441.47;4886678;29;20105;-75
2021/12/06 07:34:52;;;;;;;22.25;9.18;;;;;;;-1.48;71.24;100445.13;4889507;29;20045;-75
2021/12/06 07:37:18;;;;;;;20.48;9.40;;;;;;;-1.64;69.99;100446.03;4891821;29;20167;-75
2021/12/06 07:39:45;;;;;;;19.00;8.60;;;;;;;-1.68;70.76;100450.97;4859972;29;20163;-78
2021/12/06 07:42:12;;;;;;;23.27;10.05;;;;;;;-1.88;70.74;100426.13;4895401;29;20052;-77
2021/12/06 07:44:52;;;;;;;21.90;9.48;;;;;;;-2.31;71.18;100356.78;4888055;29;20147;-77
2021/12/06 07:47:19;;;;;;;19.27;9.05;;;;;;;-1.83;70.67;100458.72;4909310;29;20052;-78
2021/12/06 07:49:54;;;;;;;22.95;9.55;;;;;;;-1.78;71.18;100464.06;4903688;29;20052;-78
2021/12/06 07:52:32;;;;;;;21.75;9.55;;;;;;;-2.10;70.89;100429.25;4891097;29;20402;-79
2021/12/06 07:55:04;;;;;;;;;;;;;;;-1.87;70.83;100469.56;4889711;29;20758;-79
2021/12/06 07:57:39;;;;;;;22.25;9.45;;;;;;;-1.96;70.98;100451.22;4882949;29;19971;-80
2021/12/06 08:00:08;;;;;;;;;;;;;;;-1.92;70.40;100468.47;4874362;29;20047;-78
2021/12/06 08:02:51;;;;;;;24.75;10.10;;;;;;;-2.37;71.49;100416.78;4875571;29;19919;-77
2021/12/06 08:05:50;;;;;;;18.40;7.97;;;;;;;-3.41;70.66;100243.13;4891681;29;20048;-79
2021/12/06 08:08:28;;;;;;;22.67;9.50;;;;;;;-3.82;70.61;100219.69;4890421;29;20044;-76
2021/12/06 08:11:08;;;;;;;21.38;8.95;;;;;;;-2.97;71.05;100369.44;4890802;29;20535;-77
2021/12/06 08:13:40;;;;;;;20.30;8.43;;;;;;;-2.25;71.42;100482.84;4897578;29;20135;-78
2021/12/06 08:16:15;;;;;;;21.60;7.93;;;;;;;-3.49;71.68;100271.56;4877473;29;20100;-77
2021/12/06 08:18:41;;;;;;;21.17;8.40;;;;;;;-2.38;71.06;100471.97;4893815;29;20045;-77
2021/12/06 08:21:07;;;;;;;26.77;10.15;;;;;;;-2.36;71.73;100484.81;4889339;29;20454;-77
2021/12/06 08:23:37;;;;;;;19.40;8.48;;;;;;;-2.45;71.65;100468.22;4878027;29;20112;-77
2021/12/06 08:26:08;;;;;;;23.92;9.40;;;;;;;-2.99;71.65;100350.66;4894136;29;20084;-79
2021/12/06 08:28:37;;;;;;;18.60;7.95;;;;;;;-2.15;71.05;100488.53;4877875;29;20112;-78
2021/12/06 08:31:05;;;;;;;17.10;6.63;;;;;;;-2.33;70.94;100493.50;4881750;29;20061;-79
2021/12/06 08:33:33;;;;;;;18.27;7.07;;;;;;;-2.45;71.29;100503.03;4878072;29;20542;-78
2021/12/06 08:35:59;;;;;;;19.65;7.45;;;;;;;-2.54;70.91;100511.06;4896557;29;20076;-78
2021/12/06 08:38:28;;;;;;;20.90;8.27;;;;;;;-2.78;71.11;100497.81;4892937;29;20100;-78
2021/12/06 08:40:57;;;;;;;19.35;7.43;;;;;;;-2.83;70.44;100510.31;4894253;29;20041;-78
2021/12/06 08:43:23;;;;;;;21.35;8.25;;;;;;;-3.08;70.88;100493.63;4902122;29;21520;-78
2021/12/06 08:45:56;;;;;;;23.83;9.23;;;;;;;-2.78;71.65;100526.75;4887239;29;20417;-79
2021/12/06 08:48:24;;;;;;;19.80;8.18;;;;;;;-2.89;71.69;100485.38;4876894;29;20084;-80
2021/12/06 08:50:53;;;;;;;22.52;8.70;;;;;;;-2.84;71.90;100477.97;4894164;29;20079;-79
2021/12/06 08:53:19;;;;;;;23.13;7.78;;;;;;;-2.75;71.09;100488.66;4894496;29;20040;-79
2021/12/06 08:55:45;;;;;;;22.90;8.23;;;;;;;-2.59;71.44;100500.59;4896234;29;20036;-79
2021/12/06 08:58:10;;;;;;;22.33;8.40;;;;;;;-2.55;71.31;100522.06;4899421;29;20821;-84
2021/12/06 09:00:37;;;;;;;23.00;8.77;;;;;;;-2.94;70.92;100460.41;4907382;29;20055;-82
2021/12/06 09:03:04;;;;;;;19.20;6.97;;;;;;;-2.70;70.33;100516.09;4912461;29;21187;-79
2021/12/06 09:05:33;;;;;;;22.02;9.15;;;;;;;-2.81;71.73;100492.53;4911796;29;20100;-77
2021/12/06 09:08:00;;;;;;;23.45;9.48;;;;;;;-2.60;71.28;100503.06;4896712;29;20072;-78
2021/12/06 09:10:26;;;;;;;23.40;8.98;;;;;;;-2.72;70.68;100473.56;4912024;29;20044;-77
2021/12/06 09:12:52;;;;;;;23.98;9.80;;;;;;;-2.94;71.39;100435.84;4885581;29;20059;-77
2021/12/06 09:15:21;;;;;;;21.70;8.43;;;;;;;-2.58;70.81;100499.81;4896647;29;20053;-76
2021/12/06 09:17:52;;;;;;;21.02;8.55;;;;;;;-2.48;71.05;100485.03;4927093;29;20073;-77
2021/12/06 09:20:21;;;;;;;23.13;9.68;;;;;;;-2.65;71.40;100454.41;4905846;29;20100;-78
2021/12/06 09:22:48;;;;;;;26.15;9.60;;;;;;;-2.32;70.76;100500.38;4877486;29;21175;-77
2021/12/06 09:25:15;;;;;;;30.42;10.73;;;;;;;-2.89;71.50;100401.31;4883292;29;20052;-77
2021/12/06 09:27:43;;;;;;;25.92;9.50;;;;;;;-2.40;70.59;100491.41;4913493;29;20046;-77
2021/12/06 09:30:14;;;;;;;22.98;9.10;;;;;;;-2.46;71.30;100476.66;4912435;29;20072;-77
2021/12/06 09:32:40;;;;;;;21.13;8.40;;;;;;;-2.97;70.47;100412.72;4896499;29;20041;-77
2021/12/06 09:35:13;;;;;;;19.10;6.65;;;;;;;-2.44;70.38;100515.88;4911929;29;20036;-77
2021/12/06 09:37:50;;;;;;;38.95;13.70;;;;;;;-2.58;71.24;100492.16;4915042;29;20060;-78
2021/12/06 09:40:16;;;;;;;30.70;10.43;;;;;;;-2.52;70.91;100508.59;4923999;29;20061;-79
2021/12/06 09:42:43;;;;;;;30.08;10.88;;;;;;;-2.91;70.67;100446.19;4887669;29;20072;-77
2021/12/06 09:45:16;;;;;;;31.33;11.95;;;;;;;-2.59;71.21;100487.00;4900648;29;20514;-76
2021/12/06 09:47:50;;;;;;;27.15;10.50;;;;;;;-2.32;71.04;100520.75;4877015;29;20040;-78
2021/12/06 09:50:17;;;;;;;27.75;10.55;;;;;;;-2.32;70.87;100507.16;4892158;29;20052;-76
2021/12/06 09:52:44;;;;;;;39.88;13.02;;;;;;;-2.39;71.02;100492.31;4897767;29;20085;-79
2021/12/06 09:55:15;;;;;;;37.22;14.80;;;;;;;-2.21;71.18;100523.03;4882345;29;20135;-78
2021/12/06 09:57:41;;;;;;;24.73;10.00;;;;;;;-2.27;69.91;100513.34;4899669;29;20355;-79
2021/12/06 10:00:09;;;;;;;25.10;8.63;;;;;;;-2.35;70.35;100514.63;4895487;29;20051;-79
2021/12/06 10:02:36;;;;;;;21.55;8.55;;;;;;;-2.61;70.66;100480.94;4905339;29;20044;-76
2021/12/06 10:05:04;;;;;;;25.23;9.27;;;;;;;-2.40;70.39;100523.69;4896642;29;20056;-78
2021/12/06 10:07:31;;;;;;;23.98;8.98;;;;;;;-2.49;70.11;100522.38;4895986;29;20125;-76
2021/12/06 10:10:00;;;;;;;26.20;9.02;;;;;;;-2.52;70.75;100500.94;4880084;29;20187;-76
2021/12/06 10:12:28;;;;;;;19.85;8.18;;;;;;;-2.43;69.90;100522.72;4893950;29;20036;-77
2021/12/06 10:14:55;;;;;;;21.55;8.27;;;;;;;-2.46;71.38;100491.97;4895052;29;20040;-78
2021/12/06 10:17:22;;;;;;;22.88;9.25;;;;;;;-2.29;70.36;100517.50;4890777;29;20134;-77
2021/12/06 10:20:07;;;;;;;24.42;8.98;;;;;;;-2.47;70.66;100485.09;4900319;29;20107;-78
2021/12/06 10:22:37;;;;;;;22.00;9.05;;;;;;;-2.35;70.45;100490.00;4898006;29;20058;-78
2021/12/06 10:25:06;;;;;;;23.80;9.10;;;;;;;-2.19;70.96;100496.81;4898993;29;20541;-79
2021/12/06 10:27:32;;;;;;;25.80;9.75;;;;;;;-2.40;70.78;100450.63;4897012;29;20048;-75
2021/12/06 10:30:04;;;;;;;26.38;10.63;;;;;;;-1.98;70.84;100498.75;4902584;29;20044;-78
2021/12/06 10:32:36;;;;;;;25.98;9.60;;;;;;;-2.10;70.44;100480.25;4894308;29;20139;-77
2021/12/06 10:35:13;;;;;;;25.88;10.23;;;;;;;-2.13;70.62;100491.16;4880956;29;20480;-79
2021/12/06 10:37:45;;;;;;;22.73;9.77;;;;;;;-2.21;70.18;100472.03;4894988;29;20535;-78
2021/12/06 10:40:22;;;;;;;30.17;9.90;;;;;;;-2.08;70.24;100509.25;4879466;29;20121;-75
2021/12/06 10:42:54;;;;;;;26.00;9.48;;;;;;;-2.34;70.94;100466.25;4894803;29;20073;-77
2021/12/06 10:45:31;;;;;;;27.13;9.38;;;;;;;-1.86;71.16;100496.81;4877809;29;20067;-76
2021/12/06 10:48:19;;;;;;;25.85;9.55;;;;;;;-1.80;69.82;100495.41;4895282;29;20063;-78
2021/12/06 10:50:51;;;;;;;26.27;9.70;;;;;;;-1.80;70.05;100506.50;4884456;29;20056;-80
2021/12/06 10:53:23;;;;;;;25.70;9.88;;;;;;;-1.89;70.18;100498.34;4892111;29;20087;-79
2021/12/06 10:55:52;;;;;;;24.45;9.48;;;;;;;-1.77;70.77;100506.66;4893716;29;20108;-77
2021/12/06 10:58:24;;;;;;;28.42;10.75;;;;;;;-1.91;70.86;100451.47;4877969;29;20045;-77
2021/12/06 11:00:55;;;;;;;28.55;10.63;;;;;;;-1.68;70.18;100511.38;4891853;29;20072;-79
2021/12/06 11:04:07;;;;;;;30.85;11.15;;;;;;;-1.72;69.52;100512.84;4894084;29;20096;-79
2021/12/06 11:07:05;;;;;;;27.13;10.43;;;;;;;-2.79;69.92;100340.66;4871314;29;20061;-77
2021/12/06 11:10:12;;;;;;;24.00;9.40;;;;;;;-1.76;70.36;100522.84;4857507;29;20526;-78
2021/12/06 11:12:48;;;;;;;30.27;10.85;;;;;;;-1.88;70.58;100469.50;4856485;29;20053;-79
2021/12/06 11:15:15;;;;;;;23.35;9.70;;;;;;;-1.78;69.80;100483.59;4858531;29;20511;-78
2021/12/06 11:17:41;;;;;;;23.52;9.32;;;;;;;-1.64;69.12;100532.81;4875227;29;20100;-77
2021/12/06 11:20:20;;;;;;;26.08;10.52;;;;;;;-1.63;70.20;100517.56;4877659;29;20144;-77
2021/12/06 11:22:53;;;;;;;21.65;9.68;;;;;;;-1.67;68.78;100521.63;4909329;29;20051;-79
2021/12/06 11:25:31;;;;;;;29.27;11.05;;;;;;;-1.60;69.98;100488.78;4894792;29;20076;-77
2021/12/06 11:27:59;;;;;;;24.67;9.50;;;;;;;-1.46;70.25;100481.84;4908077;29;20052;-77
2021/12/06 11:30:27;;;;;;;22.38;9.65;;;;;;;-1.24;70.02;100515.31;4894791;29;20637;-77
2021/12/06 11:32:57;;;;;;;24.95;9.88;;;;;;;-1.42;70.01;100501.59;4900743;29;20056;-78
2021/12/06 11:35:25;;;;;;;23.15;9.35;;;;;;;-1.30;69.65;100525.22;4899726;29;20041;-77
2021/12/06 11:37:55;;;;;;;24.20;9.35;;;;;;;-1.46;69.13;100540.56;4891818;29;20176;-77
2021/12/06 11:40:28;;;;;;;25.13;9.98;;;;;;;-1.55;69.43;100531.63;4892068;29;20048;-78
2021/12/06 11:43:06;;;;;;;24.77;9.75;;;;;;;-1.23;69.53;100541.72;4891828;29;20422;-76
2021/12/06 11:45:34;;;;;;;27.92;11.13;;;;;;;-1.44;68.66;100496.41;4897348;29;20517;-76
2021/12/06 11:48:14;;;;;;;25.67;10.20;;;;;;;-1.28;69.34;100536.38;4904904;29;20103;-77
2021/12/06 11:50:52;;;;;;;23.23;9.70;;;;;;;-1.71;69.41;100496.75;4912184;29;20126;-76
2021/12/06 11:53:23;;;;;;;25.23;10.10;;;;;;;-1.72;68.83;100506.91;4902795;29;20044;-77
2021/12/06 11:56:02;;;;;;;25.05;9.30;;;;;;;-1.83;69.45;100486.78;4911000;29;20513;-77
2021/12/06 11:58:39;;;;;;;21.58;9.25;;;;;;;-1.56;69.79;100542.63;4908109;29;20100;-77
2021/12/06 12:01:17;;;;;;;23.48;10.07;;;;;;;-1.64;69.18;100541.34;4901578;29;20044;-79